createdAt,value
2018-07-31T00:00:22.991Z,0.00
2018-07-31T00:01:22.996Z,0.00
2018-07-31T00:02:22.997Z,0.00
2018-07-31T00:03:23.025Z,0.00
2018-07-31T00:04:22.997Z,0.00
2018-07-31T00:05:22.997Z,0.00
2018-07-31T00:06:22.996Z,0.00
2018-07-31T00:07:22.999Z,0.00
2018-07-31T00:08:23.000Z,0.00
2018-07-31T00:09:23.002Z,0.00
2018-07-31T00:10:23.012Z,0.00
2018-07-31T00:11:23.001Z,0.00
2018-07-31T00:12:23.003Z,0.00
2018-07-31T00:13:23.005Z,0.00
2018-07-31T00:14:23.003Z,0.00
2018-07-31T00:15:23.005Z,0.00
2018-07-31T00:16:23.007Z,0.00
2018-07-31T00:17:23.008Z,0.00
2018-07-31T00:18:23.008Z,0.00
2018-07-31T00:19:23.009Z,0.00
2018-07-31T00:20:23.006Z,0.00
2018-07-31T00:21:23.009Z,0.00
2018-07-31T00:22:23.008Z,0.00
2018-07-31T00:23:23.011Z,0.00
2018-07-31T00:24:23.011Z,0.00
2018-07-31T00:25:23.013Z,0.00
2018-07-31T00:26:23.014Z,0.00
2018-07-31T00:27:23.011Z,0.00
2018-07-31T00:28:23.024Z,0.00
2018-07-31T00:29:23.016Z,0.00
2018-07-31T00:30:23.015Z,0.00
2018-07-31T00:31:23.016Z,0.00
2018-07-31T00:32:23.013Z,0.00
2018-07-31T00:33:23.016Z,0.00
2018-07-31T00:34:23.016Z,0.00
2018-07-31T00:35:23.014Z,0.00
2018-07-31T00:36:23.016Z,0.00
2018-07-31T00:37:23.018Z,0.00
2018-07-31T00:38:23.023Z,0.00
2018-07-31T00:39:23.032Z,0.00
2018-07-31T00:40:23.019Z,0.00
2018-07-31T00:41:23.023Z,0.00
2018-07-31T00:42:23.018Z,0.00
2018-07-31T00:43:23.017Z,0.00
2018-07-31T00:44:23.023Z,0.00
2018-07-31T00:45:23.026Z,0.00
2018-07-31T00:46:23.023Z,0.00
2018-07-31T00:47:23.023Z,0.00
2018-07-31T00:48:23.021Z,0.00
2018-07-31T00:49:23.024Z,0.00
2018-07-31T00:50:23.028Z,0.00
2018-07-31T00:51:23.024Z,0.00
2018-07-31T00:52:23.025Z,0.00
2018-07-31T00:53:23.025Z,0.00
2018-07-31T00:54:23.024Z,0.00
2018-07-31T00:55:23.026Z,0.00
2018-07-31T00:56:23.023Z,0.00
2018-07-31T00:57:23.027Z,0.00
2018-07-31T00:58:23.027Z,0.00
2018-07-31T00:59:23.031Z,0.00
2018-07-31T01:00:23.026Z,0.00
2018-07-31T01:01:23.025Z,0.00
2018-07-31T01:02:23.032Z,0.00
2018-07-31T01:03:23.024Z,0.00
2018-07-31T01:04:23.028Z,0.00
2018-07-31T01:05:23.031Z,0.00
2018-07-31T01:06:23.030Z,0.00
2018-07-31T01:07:23.028Z,0.00
2018-07-31T01:08:23.041Z,0.00
2018-07-31T01:09:23.028Z,0.00
2018-07-31T01:10:23.039Z,0.00
2018-07-31T01:11:23.030Z,0.00
2018-07-31T01:12:23.032Z,0.00
2018-07-31T01:13:23.039Z,0.00
2018-07-31T01:14:23.032Z,0.00
2018-07-31T01:15:23.032Z,0.00
2018-07-31T01:16:23.031Z,0.00
2018-07-31T01:17:23.031Z,0.00
2018-07-31T01:18:23.033Z,0.00
2018-07-31T01:19:23.029Z,0.00
2018-07-31T01:20:23.030Z,0.00
2018-07-31T01:21:23.032Z,0.00
2018-07-31T01:22:23.029Z,0.00
2018-07-31T01:23:23.041Z,0.00
2018-07-31T01:24:23.033Z,0.00
2018-07-31T01:25:23.031Z,0.00
2018-07-31T01:26:23.036Z,0.00
2018-07-31T01:27:23.034Z,0.00
2018-07-31T01:28:23.037Z,0.00
2018-07-31T01:29:23.037Z,0.00
2018-07-31T01:30:23.034Z,0.00
2018-07-31T01:31:23.035Z,0.00
2018-07-31T01:32:23.037Z,0.00
2018-07-31T01:33:23.036Z,0.00
2018-07-31T01:34:23.034Z,0.00
2018-07-31T01:35:23.036Z,0.00
2018-07-31T01:36:23.035Z,0.00
2018-07-31T01:37:23.033Z,0.00
2018-07-31T01:38:23.035Z,0.00
2018-07-31T01:39:23.033Z,0.00
2018-07-31T01:40:23.037Z,0.00
2018-07-31T01:41:23.037Z,0.00
2018-07-31T01:42:38.035Z,0.00
2018-07-31T01:43:23.036Z,0.00
2018-07-31T01:44:23.061Z,0.00
2018-07-31T01:45:23.035Z,0.00
2018-07-31T01:46:23.066Z,0.00
2018-07-31T01:47:23.044Z,0.00
2018-07-31T01:48:23.038Z,0.00
2018-07-31T01:49:23.037Z,0.00
2018-07-31T01:50:23.045Z,0.00
2018-07-31T01:51:23.045Z,0.00
2018-07-31T01:52:23.035Z,0.00
2018-07-31T01:53:23.036Z,0.00
2018-07-31T01:54:23.064Z,0.00
2018-07-31T01:55:23.039Z,0.00
2018-07-31T01:56:23.039Z,0.00
2018-07-31T01:57:23.050Z,0.00
2018-07-31T01:58:23.046Z,0.00
2018-07-31T01:59:23.054Z,0.00
2018-07-31T02:00:23.035Z,0.00
2018-07-31T02:01:23.033Z,0.00
2018-07-31T02:02:23.037Z,0.00
2018-07-31T02:03:23.036Z,0.00
2018-07-31T02:04:23.047Z,0.00
2018-07-31T02:05:23.034Z,0.00
2018-07-31T02:06:23.081Z,0.00
2018-07-31T02:07:23.037Z,0.00
2018-07-31T02:08:23.035Z,0.00
2018-07-31T02:09:23.040Z,0.00
2018-07-31T02:10:23.037Z,0.00
2018-07-31T02:11:23.037Z,0.00
2018-07-31T02:12:23.050Z,0.00
2018-07-31T02:13:23.049Z,0.00
2018-07-31T02:14:23.037Z,0.00
2018-07-31T02:15:23.031Z,0.00
2018-07-31T02:16:23.035Z,0.00
2018-07-31T02:17:23.070Z,0.00
2018-07-31T02:18:23.036Z,0.00
2018-07-31T02:19:23.044Z,0.00
2018-07-31T02:20:23.049Z,0.00
2018-07-31T02:21:23.044Z,0.00
2018-07-31T02:22:23.062Z,0.00
2018-07-31T02:23:23.043Z,0.00
2018-07-31T02:24:23.049Z,0.00
2018-07-31T02:25:23.051Z,0.00
2018-07-31T02:26:23.056Z,0.00
2018-07-31T02:27:23.065Z,0.00
2018-07-31T02:28:23.127Z,0.00
2018-07-31T02:29:23.044Z,0.00
2018-07-31T02:30:23.049Z,0.00
2018-07-31T02:31:23.033Z,0.00
2018-07-31T02:32:23.051Z,0.00
2018-07-31T02:33:23.048Z,0.00
2018-07-31T02:34:23.087Z,0.00
2018-07-31T02:35:23.045Z,0.00
2018-07-31T02:36:23.055Z,0.00
2018-07-31T02:37:23.044Z,0.00
2018-07-31T02:38:23.035Z,0.00
2018-07-31T02:39:23.035Z,0.00
2018-07-31T02:40:23.051Z,0.00
2018-07-31T02:41:23.044Z,0.00
2018-07-31T02:42:23.031Z,0.00
2018-07-31T02:43:23.046Z,0.00
2018-07-31T02:44:23.032Z,0.00
2018-07-31T02:45:23.047Z,0.00
2018-07-31T02:46:23.032Z,0.00
2018-07-31T02:47:23.047Z,0.00
2018-07-31T02:48:23.069Z,0.00
2018-07-31T02:49:23.029Z,0.00
2018-07-31T02:50:23.041Z,0.00
2018-07-31T02:51:23.031Z,0.00
2018-07-31T02:52:23.030Z,0.00
2018-07-31T02:53:23.031Z,0.00
2018-07-31T02:54:23.034Z,0.00
2018-07-31T02:55:23.027Z,0.00
2018-07-31T02:56:23.031Z,0.00
2018-07-31T02:57:23.026Z,0.00
2018-07-31T02:58:23.152Z,0.00
2018-07-31T02:59:23.029Z,0.00
2018-07-31T03:00:23.029Z,0.00
2018-07-31T03:01:23.028Z,0.00
2018-07-31T03:02:23.048Z,0.00
2018-07-31T03:03:23.028Z,0.00
2018-07-31T03:04:23.059Z,0.00
2018-07-31T03:05:23.031Z,0.00
2018-07-31T03:06:23.054Z,0.00
2018-07-31T03:07:23.049Z,0.00
2018-07-31T03:08:23.044Z,0.00
2018-07-31T03:09:23.048Z,0.00
2018-07-31T03:10:23.025Z,0.00
2018-07-31T03:11:23.028Z,0.00
2018-07-31T03:12:23.047Z,0.00
2018-07-31T03:13:23.026Z,0.00
2018-07-31T03:14:23.029Z,0.00
2018-07-31T03:15:23.027Z,0.00
2018-07-31T03:16:23.027Z,0.00
2018-07-31T03:17:23.035Z,0.00
2018-07-31T03:18:23.027Z,0.00
2018-07-31T03:19:23.022Z,0.00
2018-07-31T03:20:23.021Z,0.00
2018-07-31T03:21:23.028Z,0.00
2018-07-31T03:22:23.029Z,0.00
2018-07-31T03:23:23.022Z,0.00
2018-07-31T03:24:23.020Z,0.00
2018-07-31T03:25:23.021Z,0.00
2018-07-31T03:26:23.021Z,0.00
2018-07-31T03:27:23.020Z,0.00
2018-07-31T03:28:23.051Z,0.00
2018-07-31T03:29:23.020Z,0.00
2018-07-31T03:30:23.020Z,0.00
2018-07-31T03:31:23.027Z,0.00
2018-07-31T03:32:23.020Z,0.00
2018-07-31T03:33:23.017Z,0.00
2018-07-31T03:34:23.022Z,0.00
2018-07-31T03:35:23.058Z,0.00
2018-07-31T03:36:23.020Z,0.00
2018-07-31T03:37:23.021Z,0.00
2018-07-31T03:38:23.017Z,0.00
2018-07-31T03:39:23.018Z,0.00
2018-07-31T03:40:23.013Z,0.00
2018-07-31T03:41:23.016Z,0.00
2018-07-31T03:42:23.017Z,0.00
2018-07-31T03:43:23.012Z,0.00
2018-07-31T03:44:23.014Z,0.00
2018-07-31T03:45:23.014Z,0.00
2018-07-31T03:46:23.011Z,0.00
2018-07-31T03:47:23.032Z,0.00
2018-07-31T03:48:23.010Z,0.00
2018-07-31T03:49:23.017Z,0.00
2018-07-31T03:50:23.013Z,0.00
2018-07-31T03:51:23.012Z,0.00
2018-07-31T03:52:23.012Z,0.00
2018-07-31T03:53:23.008Z,0.00
2018-07-31T03:54:23.010Z,0.00
2018-07-31T03:55:23.012Z,0.00
2018-07-31T03:56:23.010Z,0.00
2018-07-31T03:57:23.006Z,0.00
2018-07-31T03:58:23.008Z,0.00
2018-07-31T03:59:23.008Z,0.00
2018-07-31T04:00:23.015Z,0.00
2018-07-31T04:01:23.004Z,0.00
2018-07-31T04:02:23.010Z,0.00
2018-07-31T04:03:23.002Z,0.00
2018-07-31T04:04:23.004Z,0.00
2018-07-31T04:05:23.030Z,0.00
2018-07-31T04:06:23.004Z,0.00
2018-07-31T04:07:22.999Z,0.00
2018-07-31T04:08:23.004Z,0.00
2018-07-31T04:09:23.001Z,0.00
2018-07-31T04:10:23.000Z,0.00
2018-07-31T04:11:23.001Z,0.00
2018-07-31T04:12:22.999Z,0.00
2018-07-31T04:13:23.000Z,0.00
2018-07-31T04:14:23.002Z,0.00
2018-07-31T04:15:22.998Z,0.00
2018-07-31T04:16:22.996Z,0.00
2018-07-31T04:17:23.000Z,0.00
2018-07-31T04:18:22.997Z,0.00
2018-07-31T04:19:22.997Z,0.00
2018-07-31T04:20:22.997Z,0.00
2018-07-31T04:21:22.999Z,0.00
2018-07-31T04:22:22.992Z,0.00
2018-07-31T04:23:22.993Z,0.00
2018-07-31T04:24:22.990Z,0.00
2018-07-31T04:25:23.003Z,0.00
2018-07-31T04:26:22.994Z,0.00
2018-07-31T04:27:22.994Z,0.00
2018-07-31T04:28:22.995Z,0.00
2018-07-31T04:29:22.991Z,0.00
2018-07-31T04:30:22.990Z,0.00
2018-07-31T04:31:22.992Z,0.00
2018-07-31T04:32:22.992Z,0.00
2018-07-31T04:33:22.990Z,0.00
2018-07-31T04:34:22.992Z,0.00
2018-07-31T04:35:22.990Z,0.00
2018-07-31T04:36:22.986Z,0.00
2018-07-31T04:37:22.988Z,0.00
2018-07-31T04:38:22.985Z,0.00
2018-07-31T04:39:22.982Z,0.00
2018-07-31T04:40:22.987Z,0.00
2018-07-31T04:41:22.990Z,0.00
2018-07-31T04:42:23.078Z,0.00
2018-07-31T04:43:22.981Z,0.00
2018-07-31T04:44:22.982Z,0.00
2018-07-31T04:45:22.982Z,0.00
2018-07-31T04:46:22.987Z,0.00
2018-07-31T04:47:22.982Z,0.00
2018-07-31T04:48:22.985Z,0.00
2018-07-31T04:49:22.981Z,0.00
2018-07-31T04:50:23.006Z,0.00
2018-07-31T04:51:22.977Z,0.00
2018-07-31T04:52:22.978Z,0.00
2018-07-31T04:53:22.977Z,0.00
2018-07-31T04:54:22.981Z,0.00
2018-07-31T04:55:22.979Z,0.00
2018-07-31T04:56:22.979Z,0.00
2018-07-31T04:57:22.979Z,0.00
2018-07-31T04:58:22.974Z,0.00
2018-07-31T04:59:22.976Z,0.00
2018-07-31T05:00:22.977Z,0.00
2018-07-31T05:01:22.979Z,0.00
2018-07-31T05:02:22.975Z,0.00
2018-07-31T05:03:22.975Z,0.00
2018-07-31T05:04:23.020Z,0.00
2018-07-31T05:05:22.973Z,0.00
2018-07-31T05:06:22.973Z,0.00
2018-07-31T05:07:22.974Z,0.00
2018-07-31T05:08:22.972Z,0.00
2018-07-31T05:09:22.975Z,0.00
2018-07-31T05:10:22.976Z,0.00
2018-07-31T05:11:22.972Z,0.00
2018-07-31T05:12:22.969Z,0.00
2018-07-31T05:13:22.971Z,0.00
2018-07-31T05:14:23.033Z,0.00
2018-07-31T05:15:22.972Z,0.00
2018-07-31T05:16:22.979Z,0.00
2018-07-31T05:17:22.975Z,0.00
2018-07-31T05:18:23.001Z,0.00
2018-07-31T05:19:22.977Z,0.00
2018-07-31T05:20:22.974Z,0.00
2018-07-31T05:21:22.976Z,0.00
2018-07-31T05:22:22.976Z,0.00
2018-07-31T05:23:22.976Z,0.00
2018-07-31T05:24:22.979Z,0.00
2018-07-31T05:25:23.108Z,0.00
2018-07-31T05:26:22.978Z,0.00
2018-07-31T05:27:22.977Z,0.00
2018-07-31T05:28:22.984Z,0.00
2018-07-31T05:29:22.984Z,0.00
2018-07-31T05:30:22.996Z,0.00
2018-07-31T05:31:22.986Z,0.00
2018-07-31T05:32:23.046Z,0.00
2018-07-31T05:33:22.988Z,0.00
2018-07-31T05:34:22.988Z,0.00
2018-07-31T05:35:22.989Z,0.00
2018-07-31T05:36:22.993Z,0.00
2018-07-31T05:37:22.996Z,0.00
2018-07-31T05:38:22.999Z,0.00
2018-07-31T05:39:23.004Z,0.00
2018-07-31T05:40:23.002Z,0.00
2018-07-31T05:41:23.001Z,0.00
2018-07-31T05:42:23.001Z,0.00
2018-07-31T05:43:23.002Z,0.00
2018-07-31T05:44:23.007Z,0.00
2018-07-31T05:45:23.018Z,0.00
2018-07-31T05:46:23.015Z,0.00
2018-07-31T05:47:23.014Z,0.00
2018-07-31T05:48:23.018Z,0.00
2018-07-31T05:49:23.020Z,0.00
2018-07-31T05:50:23.021Z,0.00
2018-07-31T05:51:23.057Z,0.00
2018-07-31T05:52:23.034Z,0.00
2018-07-31T05:53:23.034Z,0.00
2018-07-31T05:54:23.035Z,0.00
2018-07-31T05:55:23.035Z,0.00
2018-07-31T05:56:23.042Z,0.00
2018-07-31T05:57:23.088Z,0.00
2018-07-31T05:58:23.048Z,0.00
2018-07-31T05:59:23.052Z,0.00
2018-07-31T06:00:23.054Z,0.00
2018-07-31T06:01:23.062Z,0.00
2018-07-31T06:02:23.061Z,0.00
2018-07-31T06:03:23.065Z,0.00
2018-07-31T06:04:23.070Z,0.00
2018-07-31T06:05:23.069Z,0.00
2018-07-31T06:06:23.075Z,0.00
2018-07-31T06:07:23.084Z,0.00
2018-07-31T06:08:23.088Z,0.00
2018-07-31T06:09:23.097Z,0.00
2018-07-31T06:10:23.090Z,0.00
2018-07-31T06:11:23.148Z,0.00
2018-07-31T06:12:23.098Z,0.00
2018-07-31T06:13:23.113Z,0.10
2018-07-31T06:14:23.107Z,0.10
2018-07-31T06:15:23.171Z,0.10
2018-07-31T06:16:23.462Z,0.10
2018-07-31T06:17:23.419Z,0.00
2018-07-31T06:18:23.937Z,0.10
2018-07-31T06:19:23.570Z,0.10
2018-07-31T06:20:23.442Z,0.00
2018-07-31T06:21:23.211Z,0.10
2018-07-31T06:22:23.294Z,0.10
2018-07-31T06:23:23.703Z,0.10
2018-07-31T06:24:23.358Z,0.10
2018-07-31T06:25:23.174Z,0.10
2018-07-31T06:26:23.159Z,0.10
2018-07-31T06:27:23.186Z,0.10
2018-07-31T06:28:23.187Z,0.10
2018-07-31T06:29:23.226Z,0.10
2018-07-31T06:30:23.176Z,0.10
2018-07-31T06:31:31.152Z,0.10
2018-07-31T06:33:17.285Z,0.00
2018-07-31T06:34:16.886Z,0.10
2018-07-31T06:36:10.659Z,0.00
2018-07-31T06:37:10.611Z,0.00
2018-07-31T06:39:05.413Z,0.10
2018-07-31T06:40:05.384Z,0.10
2018-07-31T06:41:06.239Z,0.10
2018-07-31T06:42:05.361Z,0.00
2018-07-31T06:43:05.367Z,0.10
2018-07-31T06:44:05.391Z,0.10
2018-07-31T06:45:05.381Z,0.10
2018-07-31T06:46:05.392Z,0.00
2018-07-31T06:47:05.386Z,0.00
2018-07-31T06:48:09.872Z,0.10
2018-07-31T06:49:05.405Z,0.10
2018-07-31T06:50:05.407Z,0.10
2018-07-31T06:51:05.407Z,0.10
2018-07-31T06:52:05.418Z,0.10
2018-07-31T06:53:05.424Z,0.10
2018-07-31T06:54:05.419Z,0.10
2018-07-31T06:55:05.428Z,0.10
2018-07-31T06:56:05.427Z,0.10
2018-07-31T06:57:05.435Z,0.10
2018-07-31T06:58:05.438Z,0.10
2018-07-31T06:59:05.445Z,0.10
2018-07-31T07:00:05.458Z,0.10
2018-07-31T07:01:05.451Z,0.10
2018-07-31T07:02:05.492Z,0.10
2018-07-31T07:03:05.461Z,0.10
2018-07-31T07:04:06.507Z,0.10
2018-07-31T07:05:05.477Z,0.10
2018-07-31T07:06:05.481Z,0.10
2018-07-31T07:07:05.485Z,0.10
2018-07-31T07:08:05.497Z,0.10
2018-07-31T07:09:05.505Z,0.10
2018-07-31T07:10:05.527Z,0.20
2018-07-31T07:11:05.544Z,0.10
2018-07-31T07:12:05.516Z,0.10
2018-07-31T07:13:05.528Z,0.10
2018-07-31T07:14:05.524Z,0.10
2018-07-31T07:15:05.533Z,0.10
2018-07-31T07:16:05.534Z,0.10
2018-07-31T07:17:05.540Z,0.20
2018-07-31T07:18:05.549Z,0.10
2018-07-31T07:19:05.561Z,0.10
2018-07-31T07:20:05.581Z,0.20
2018-07-31T07:21:05.565Z,0.20
2018-07-31T07:22:05.570Z,0.10
2018-07-31T07:23:05.575Z,0.20
2018-07-31T07:24:05.582Z,0.20
2018-07-31T07:25:05.593Z,0.20
2018-07-31T07:26:05.603Z,0.20
2018-07-31T07:27:05.602Z,0.20
2018-07-31T07:28:05.609Z,0.30
2018-07-31T07:29:05.619Z,0.30
2018-07-31T07:30:05.623Z,0.30
2018-07-31T07:31:05.629Z,0.30
2018-07-31T07:32:05.636Z,0.30
2018-07-31T07:33:05.647Z,0.30
2018-07-31T07:34:05.657Z,0.30
2018-07-31T07:35:05.659Z,0.20
2018-07-31T07:36:05.664Z,0.30
2018-07-31T07:37:05.668Z,0.20
2018-07-31T07:38:05.676Z,0.20
2018-07-31T07:39:05.683Z,0.20
2018-07-31T07:40:05.699Z,0.20
2018-07-31T07:41:05.702Z,0.10
2018-07-31T07:42:05.703Z,0.10
2018-07-31T07:43:05.745Z,0.10
2018-07-31T07:44:05.718Z,0.20
2018-07-31T07:45:05.722Z,0.10
2018-07-31T07:46:05.731Z,0.20
2018-07-31T07:47:05.741Z,0.20
2018-07-31T07:48:05.742Z,0.20
2018-07-31T07:49:05.745Z,0.20
2018-07-31T07:50:05.756Z,0.20
2018-07-31T07:51:05.766Z,0.30
2018-07-31T07:52:05.765Z,0.20
2018-07-31T07:53:05.772Z,0.30
2018-07-31T07:54:05.874Z,0.30
2018-07-31T07:55:05.784Z,0.30
2018-07-31T07:56:05.792Z,0.30
2018-07-31T07:57:05.801Z,0.30
2018-07-31T07:58:05.812Z,0.30
2018-07-31T07:59:05.819Z,0.30
2018-07-31T08:00:05.831Z,0.40
2018-07-31T08:01:05.842Z,0.30
2018-07-31T08:02:05.841Z,0.30
2018-07-31T08:03:05.849Z,0.30
2018-07-31T08:04:05.935Z,0.30
2018-07-31T08:05:05.854Z,0.30
2018-07-31T08:06:05.913Z,0.30
2018-07-31T08:07:06.614Z,0.30
2018-07-31T08:08:06.612Z,0.30
2018-07-31T08:09:05.884Z,0.30
2018-07-31T08:10:05.892Z,0.30
2018-07-31T08:11:05.898Z,0.30
2018-07-31T08:12:05.905Z,0.30
2018-07-31T08:13:05.911Z,0.20
2018-07-31T08:14:05.918Z,0.20
2018-07-31T08:15:05.945Z,0.20
2018-07-31T08:16:05.932Z,0.30
2018-07-31T08:17:05.940Z,0.30
2018-07-31T08:18:05.945Z,0.30
2018-07-31T08:19:05.955Z,0.30
2018-07-31T08:20:05.960Z,0.30
2018-07-31T08:21:05.968Z,0.30
2018-07-31T08:22:05.975Z,0.30
2018-07-31T08:23:05.979Z,0.30
2018-07-31T08:24:05.989Z,0.30
2018-07-31T08:25:05.999Z,0.30
2018-07-31T08:26:06.005Z,0.30
2018-07-31T08:27:06.628Z,0.30
2018-07-31T08:28:06.013Z,0.30
2018-07-31T08:29:06.022Z,0.30
2018-07-31T08:30:06.033Z,0.30
2018-07-31T08:31:06.040Z,0.30
2018-07-31T08:32:06.043Z,0.30
2018-07-31T08:33:06.065Z,0.40
2018-07-31T08:34:06.061Z,0.40
2018-07-31T08:35:06.068Z,0.40
2018-07-31T08:36:06.074Z,0.40
2018-07-31T08:37:06.082Z,0.40
2018-07-31T08:38:06.088Z,0.50
2018-07-31T08:39:06.099Z,0.50
2018-07-31T08:40:06.108Z,0.50
2018-07-31T08:41:06.115Z,0.50
2018-07-31T08:42:06.127Z,0.60
2018-07-31T08:43:06.129Z,0.70
2018-07-31T08:44:06.148Z,0.70
2018-07-31T08:45:06.147Z,0.70
2018-07-31T08:46:06.156Z,0.80
2018-07-31T08:47:06.163Z,0.90
2018-07-31T08:48:06.168Z,0.90
2018-07-31T08:49:06.174Z,0.80
2018-07-31T08:50:06.196Z,0.90
2018-07-31T08:51:06.247Z,0.80
2018-07-31T08:52:06.229Z,0.80
2018-07-31T08:53:06.227Z,0.90
2018-07-31T08:54:06.228Z,0.90
2018-07-31T08:55:06.241Z,0.90
2018-07-31T08:56:06.242Z,1.00
2018-07-31T08:57:06.250Z,1.00
2018-07-31T08:58:06.261Z,1.00
2018-07-31T08:59:06.325Z,1.10
2018-07-31T09:00:06.279Z,1.10
2018-07-31T09:01:06.289Z,1.20
2018-07-31T09:02:06.299Z,1.20
2018-07-31T09:03:06.307Z,1.30
2018-07-31T09:04:06.337Z,1.20
2018-07-31T09:05:06.324Z,1.30
2018-07-31T09:06:06.343Z,1.30
2018-07-31T09:07:06.349Z,1.30
2018-07-31T09:08:06.376Z,1.30
2018-07-31T09:09:06.369Z,1.40
2018-07-31T09:10:06.375Z,1.60
2018-07-31T09:11:06.397Z,1.50
2018-07-31T09:12:06.401Z,1.60
2018-07-31T09:13:06.450Z,1.50
2018-07-31T09:14:06.419Z,1.50
2018-07-31T09:15:06.433Z,1.60
2018-07-31T09:16:06.453Z,1.60
2018-07-31T09:17:06.479Z,1.50
2018-07-31T09:18:06.459Z,1.70
2018-07-31T09:19:06.470Z,1.60
2018-07-31T09:20:06.549Z,1.60
2018-07-31T09:21:06.494Z,1.40
2018-07-31T09:22:06.503Z,1.30
2018-07-31T09:23:06.518Z,1.10
2018-07-31T09:24:06.523Z,1.10
2018-07-31T09:25:06.536Z,1.00
2018-07-31T09:26:06.544Z,0.80
2018-07-31T09:27:06.559Z,0.90
2018-07-31T09:28:06.570Z,0.80
2018-07-31T09:29:06.574Z,0.70
2018-07-31T09:30:06.586Z,0.70
2018-07-31T09:31:06.727Z,0.70
2018-07-31T09:32:06.603Z,0.70
2018-07-31T09:33:06.611Z,0.70
2018-07-31T09:34:06.620Z,0.60
2018-07-31T09:35:06.630Z,0.70
2018-07-31T09:36:06.638Z,0.60
2018-07-31T09:37:06.650Z,0.70
2018-07-31T09:38:06.719Z,0.70
2018-07-31T09:39:06.662Z,0.70
2018-07-31T09:40:06.695Z,0.60
2018-07-31T09:41:06.689Z,0.50
2018-07-31T09:42:06.690Z,0.50
2018-07-31T09:43:06.709Z,0.50
2018-07-31T09:44:06.711Z,0.40
2018-07-31T09:45:06.716Z,0.50
2018-07-31T09:46:06.726Z,0.40
2018-07-31T09:47:07.040Z,0.40
2018-07-31T09:48:06.747Z,0.40
2018-07-31T09:49:06.750Z,0.40
2018-07-31T09:50:06.766Z,0.50
2018-07-31T09:51:06.766Z,0.50
2018-07-31T09:52:06.773Z,0.50
2018-07-31T09:53:06.779Z,0.50
2018-07-31T09:54:06.788Z,0.40
2018-07-31T09:55:06.794Z,0.40
2018-07-31T09:56:06.832Z,0.40
2018-07-31T09:57:06.858Z,0.40
2018-07-31T09:58:06.861Z,0.40
2018-07-31T09:59:06.851Z,0.30
2018-07-31T10:00:06.845Z,0.30
2018-07-31T10:01:06.840Z,0.30
2018-07-31T10:02:06.853Z,0.30
2018-07-31T10:03:06.868Z,0.30
2018-07-31T10:04:06.863Z,0.30
2018-07-31T10:05:06.920Z,0.40
2018-07-31T10:06:06.897Z,0.40
2018-07-31T10:07:06.892Z,0.40
2018-07-31T10:08:07.690Z,0.40
2018-07-31T10:09:06.899Z,0.50
2018-07-31T10:10:06.927Z,0.60
2018-07-31T10:11:06.913Z,0.60
2018-07-31T10:12:06.942Z,0.70
2018-07-31T10:13:06.954Z,0.80
2018-07-31T10:14:06.947Z,0.80
2018-07-31T10:15:06.952Z,0.90
2018-07-31T10:16:06.962Z,1.00
2018-07-31T10:17:06.967Z,1.00
2018-07-31T10:18:07.026Z,1.00
2018-07-31T10:19:06.987Z,1.10
2018-07-31T10:20:06.998Z,1.20
2018-07-31T10:21:07.024Z,1.10
2018-07-31T10:22:07.010Z,1.10
2018-07-31T10:23:07.023Z,1.00
2018-07-31T10:24:07.091Z,1.00
2018-07-31T10:25:07.040Z,0.80
2018-07-31T10:26:07.065Z,0.80
2018-07-31T10:27:07.060Z,0.70
2018-07-31T10:28:07.067Z,0.70
2018-07-31T10:29:07.080Z,0.70
2018-07-31T10:30:07.087Z,0.70
2018-07-31T10:31:07.102Z,0.60
2018-07-31T10:32:07.103Z,0.60
2018-07-31T10:33:07.112Z,0.50
2018-07-31T10:34:07.116Z,0.50
2018-07-31T10:35:07.127Z,0.50
2018-07-31T10:36:07.136Z,0.60
2018-07-31T10:37:07.141Z,0.60
2018-07-31T10:38:07.157Z,0.80
2018-07-31T10:39:07.158Z,0.70
2018-07-31T10:40:07.173Z,0.80
2018-07-31T10:41:07.180Z,0.70
2018-07-31T10:42:07.193Z,0.80
2018-07-31T10:43:07.193Z,0.80
2018-07-31T10:44:07.309Z,0.80
2018-07-31T10:45:07.212Z,0.80
2018-07-31T10:46:07.233Z,0.90
2018-07-31T10:47:07.229Z,0.90
2018-07-31T10:48:07.238Z,0.90
2018-07-31T10:49:07.261Z,1.00
2018-07-31T10:50:07.255Z,0.90
2018-07-31T10:51:07.317Z,0.90
2018-07-31T10:52:07.271Z,0.80
2018-07-31T10:53:07.282Z,0.80
2018-07-31T10:54:07.318Z,0.70
2018-07-31T10:55:07.329Z,0.70
2018-07-31T10:56:07.323Z,0.60
2018-07-31T10:57:07.322Z,0.60
2018-07-31T10:58:07.391Z,0.50
2018-07-31T10:59:07.348Z,0.50
2018-07-31T11:00:07.419Z,0.40
2018-07-31T11:01:07.352Z,0.40
2018-07-31T11:02:07.355Z,0.40
2018-07-31T11:03:07.474Z,0.40
2018-07-31T11:04:07.420Z,0.40
2018-07-31T11:05:07.376Z,0.30
2018-07-31T11:06:07.436Z,0.40
2018-07-31T11:07:07.394Z,0.40
2018-07-31T11:08:07.400Z,0.30
2018-07-31T11:09:07.408Z,0.30
2018-07-31T11:10:07.418Z,0.40
2018-07-31T11:11:07.426Z,0.40
2018-07-31T11:12:07.426Z,0.30
2018-07-31T11:13:07.478Z,0.30
2018-07-31T11:14:07.445Z,0.40
2018-07-31T11:15:07.459Z,0.40
2018-07-31T11:16:08.236Z,0.40
2018-07-31T11:17:07.467Z,0.30
2018-07-31T11:18:07.471Z,0.30
2018-07-31T11:19:07.480Z,0.30
2018-07-31T11:20:07.484Z,0.30
2018-07-31T11:21:07.578Z,0.40
2018-07-31T11:22:07.503Z,0.40
2018-07-31T11:23:07.508Z,0.40
2018-07-31T11:24:07.518Z,0.40
2018-07-31T11:25:07.522Z,0.40
2018-07-31T11:26:07.528Z,0.40
2018-07-31T11:27:07.635Z,0.40
2018-07-31T11:28:07.544Z,0.50
2018-07-31T11:29:07.548Z,0.60
2018-07-31T11:30:07.564Z,0.50
2018-07-31T11:31:07.570Z,0.70
2018-07-31T11:32:07.573Z,0.80
2018-07-31T11:33:07.587Z,0.80
2018-07-31T11:34:07.597Z,0.80
2018-07-31T11:35:07.596Z,1.00
2018-07-31T11:36:07.607Z,0.70
2018-07-31T11:37:07.616Z,0.90
2018-07-31T11:38:07.643Z,1.20
2018-07-31T11:39:07.651Z,1.00
2018-07-31T11:40:07.643Z,1.30
2018-07-31T11:41:07.649Z,1.40
2018-07-31T11:42:07.699Z,1.40
2018-07-31T11:43:07.664Z,1.60
2018-07-31T11:44:07.699Z,1.50
2018-07-31T11:45:07.692Z,1.70
2018-07-31T11:46:07.690Z,1.90
2018-07-31T11:47:07.711Z,1.90
2018-07-31T11:48:07.728Z,1.60
2018-07-31T11:49:07.730Z,1.60
2018-07-31T11:50:07.798Z,1.90
2018-07-31T11:51:07.741Z,1.90
2018-07-31T11:52:07.747Z,1.90
2018-07-31T11:53:07.760Z,1.80
2018-07-31T11:54:07.766Z,1.80
2018-07-31T11:55:07.797Z,1.70
2018-07-31T11:56:07.788Z,1.80
2018-07-31T11:57:07.800Z,1.90
2018-07-31T11:58:07.832Z,1.90
2018-07-31T11:59:07.819Z,2.00
2018-07-31T12:00:07.847Z,2.00
2018-07-31T12:01:07.847Z,2.20
2018-07-31T12:02:07.861Z,2.00
2018-07-31T12:03:07.887Z,2.20
2018-07-31T12:04:07.875Z,2.30
2018-07-31T12:05:07.887Z,2.40
2018-07-31T12:06:07.897Z,2.40
2018-07-31T12:07:07.909Z,2.30
2018-07-31T12:08:07.916Z,2.40
2018-07-31T12:09:07.960Z,2.20
2018-07-31T12:10:07.947Z,2.30
2018-07-31T12:11:07.944Z,2.20
2018-07-31T12:12:07.958Z,2.10
2018-07-31T12:13:07.987Z,2.10
2018-07-31T12:14:07.980Z,2.10
2018-07-31T12:15:07.985Z,2.10
2018-07-31T12:16:08.023Z,2.10
2018-07-31T12:17:08.011Z,2.10
2018-07-31T12:18:08.021Z,2.10
2018-07-31T12:19:08.145Z,2.10
2018-07-31T12:20:08.046Z,2.10
2018-07-31T12:21:08.055Z,2.20
2018-07-31T12:22:08.064Z,2.10
2018-07-31T12:23:08.075Z,2.20
2018-07-31T12:24:08.120Z,2.10
2018-07-31T12:25:08.149Z,1.80
2018-07-31T12:26:08.121Z,1.70
2018-07-31T12:27:08.156Z,1.40
2018-07-31T12:28:08.140Z,1.20
2018-07-31T12:29:08.157Z,1.10
2018-07-31T12:30:08.169Z,1.00
2018-07-31T12:31:14.789Z,0.90
2018-07-31T12:32:08.178Z,0.80
2018-07-31T12:33:08.237Z,0.80
2018-07-31T12:34:08.189Z,0.80
2018-07-31T12:35:08.209Z,0.80
2018-07-31T12:36:08.227Z,0.80
2018-07-31T12:37:08.214Z,0.90
2018-07-31T12:38:08.312Z,0.90
2018-07-31T12:39:08.260Z,1.00
2018-07-31T12:40:08.241Z,0.80
2018-07-31T12:41:08.250Z,0.90
2018-07-31T12:42:08.256Z,0.80
2018-07-31T12:43:08.267Z,0.70
2018-07-31T12:44:08.342Z,0.90
2018-07-31T12:45:08.286Z,0.90
2018-07-31T12:46:08.296Z,0.70
2018-07-31T12:47:08.306Z,0.60
2018-07-31T12:48:08.309Z,0.80
2018-07-31T12:49:08.322Z,0.70
2018-07-31T12:50:08.390Z,0.50
2018-07-31T12:51:08.357Z,0.50
2018-07-31T12:52:08.343Z,0.70
2018-07-31T12:53:08.348Z,0.70
2018-07-31T12:54:08.357Z,0.80
2018-07-31T12:55:09.303Z,0.70
2018-07-31T12:56:08.375Z,0.60
2018-07-31T12:57:08.399Z,0.60
2018-07-31T12:58:08.395Z,0.70
2018-07-31T12:59:08.405Z,0.60
2018-07-31T13:00:08.418Z,0.60
2018-07-31T13:01:08.460Z,0.60
2018-07-31T13:02:08.423Z,0.60
2018-07-31T13:03:08.447Z,0.60
2018-07-31T13:04:08.440Z,0.60
2018-07-31T13:05:08.456Z,0.70
2018-07-31T13:06:08.482Z,0.70
2018-07-31T13:07:08.486Z,0.70
2018-07-31T13:08:08.488Z,0.80
2018-07-31T13:09:09.314Z,0.80
2018-07-31T13:10:08.511Z,0.80
2018-07-31T13:11:08.495Z,0.80
2018-07-31T13:12:08.507Z,0.80
2018-07-31T13:13:08.518Z,0.80
2018-07-31T13:14:08.528Z,0.80
2018-07-31T13:15:08.551Z,0.90
2018-07-31T13:16:08.559Z,0.90
2018-07-31T13:17:08.552Z,0.90
2018-07-31T13:18:08.568Z,0.90
2018-07-31T13:19:08.566Z,1.00
2018-07-31T13:20:08.595Z,0.90
2018-07-31T13:21:08.607Z,1.00